Time;durP1;ratioP1;P1;durP2;ratioP2;P2;SDS_P1;SDS_P2;PMS_P1;PMS_P2;Temp;Humidity;BMP_temperature;BMP_pressure;BME280_temperature;BME280_humidity;BME280_pressure;Samples;Min_cycle;Max_cycle;Signal;HPM_P1;HPM_P2
2022/10/12 00:01:41;;;;;;;14.63;5.90;;;11.80;99.90;;;;;;5011270;28;20184;-46
2022/10/12 00:04:06;;;;;;;16.45;5.32;;;11.80;99.90;;;;;;5012855;28;20651;-48
2022/10/12 00:06:32;;;;;;;15.55;4.72;;;11.80;99.90;;;;;;5012525;28;20243;-51
2022/10/12 00:08:58;;;;;;;15.20;4.93;;;11.80;99.90;;;;;;5011111;28;20177;-48
2022/10/12 00:11:26;;;;;;;12.82;4.60;;;11.80;99.90;;;;;;5012303;28;20180;-46
2022/10/12 00:13:53;;;;;;;10.45;4.75;;;11.70;99.90;;;;;;5012198;28;20169;-48
2022/10/12 00:16:21;;;;;;;12.93;4.22;;;11.70;99.90;;;;;;5016257;28;20184;-51
2022/10/12 00:18:55;;;;;;;15.18;4.38;;;11.60;99.90;;;;;;5016414;28;20173;-50
2022/10/12 00:21:22;;;;;;;11.10;4.43;;;11.60;99.90;;;;;;5016210;28;20247;-47
2022/10/12 00:23:49;;;;;;;15.98;4.68;;;11.60;99.90;;;;;;5003260;28;20182;-48
2022/10/12 00:26:20;;;;;;;13.45;4.70;;;11.50;99.90;;;;;;5005382;28;20681;-51
2022/10/12 00:28:46;;;;;;;12.77;4.68;;;11.50;99.90;;;;;;5016286;28;20181;-51
2022/10/12 00:31:17;;;;;;;13.35;4.43;;;11.50;99.90;;;;;;5015453;28;20181;-49
2022/10/12 00:33:44;;;;;;;13.40;4.22;;;11.40;99.90;;;;;;5016322;28;20176;-49
2022/10/12 00:36:25;;;;;;;16.52;5.05;;;11.40;99.90;;;;;;5014977;28;20207;-49
2022/10/12 00:38:53;;;;;;;13.27;4.60;;;11.30;99.90;;;;;;5016245;28;20187;-45
2022/10/12 00:41:23;;;;;;;15.52;4.82;;;11.30;99.90;;;;;;5018087;28;20168;-48
2022/10/12 00:43:50;;;;;;;14.13;4.40;;;11.30;99.90;;;;;;5035460;28;20227;-45
2022/10/12 00:46:21;;;;;;;13.63;4.60;;;11.30;99.90;;;;;;5034527;28;20204;-46
2022/10/12 00:48:52;;;;;;;15.60;4.97;;;11.20;99.90;;;;;;5035835;28;20247;-45
2022/10/12 00:51:20;;;;;;;18.50;5.03;;;11.30;99.90;;;;;;5034637;28;20347;-48
2022/10/12 00:53:54;;;;;;;16.58;4.80;;;11.20;99.90;;;;;;5036086;28;20706;-50
2022/10/12 00:56:22;;;;;;;13.68;4.97;;;11.20;99.90;;;;;;5014324;28;20369;-50
2022/10/12 00:58:49;;;;;;;19.40;4.97;;;11.20;99.90;;;;;;5015845;28;20169;-48
2022/10/12 01:01:16;;;;;;;17.88;5.63;;;11.10;99.90;;;;;;5014762;28;20180;-51
2022/10/12 01:03:43;;;;;;;11.07;4.80;;;11.10;99.90;;;;;;5014171;28;20185;-47
2022/10/12 01:06:08;;;;;;;16.45;5.00;;;11.10;99.90;;;;;;5015641;28;20216;-52
2022/10/12 01:08:36;;;;;;;15.68;4.95;;;11.20;99.90;;;;;;5013754;28;20210;-52
2022/10/12 01:11:02;;;;;;;13.77;5.00;;;11.10;99.90;;;;;;5015499;28;20654;-50
2022/10/12 01:13:28;;;;;;;17.45;4.93;;;11.10;99.90;;;;;;5013455;28;20179;-51
2022/10/12 01:15:57;;;;;;;15.15;4.80;;;11.10;99.90;;;;;;5014983;28;20176;-47
2022/10/12 01:18:43;;;;;;;18.58;5.15;;;11.10;99.90;;;;;;5015078;28;20723;-45
2022/10/12 01:21:22;;;;;;;10.57;4.50;;;11.00;99.90;;;;;;5000562;28;20625;-48
2022/10/12 01:24:16;;;;;;;18.15;4.88;;;11.00;99.90;;;;;;5015308;28;20665;-46
2022/10/12 01:27:00;;;;;;;14.45;4.78;;;11.00;99.90;;;;;;5014739;28;20611;-49
2022/10/12 01:29:51;;;;;;;13.55;4.75;;;10.90;99.90;;;;;;5013486;28;20176;-50
2022/10/12 01:32:34;;;;;;;17.33;4.63;;;10.80;99.90;;;;;;5014988;28;20200;-49
2022/10/12 01:35:27;;;;;;;14.68;4.53;;;10.80;99.90;;;;;;5014587;28;20180;-47
2022/10/12 01:37:58;;;;;;;17.35;5.20;;;10.70;99.90;;;;;;4988250;28;20678;-50
2022/10/12 01:40:38;;;;;;;14.57;4.80;;;10.70;99.90;;;;;;5013749;28;20181;-47
2022/10/12 01:43:04;;;;;;;15.10;5.53;;;10.70;99.90;;;;;;5014687;28;20224;-46
2022/10/12 01:45:29;;;;;;;15.32;4.93;;;10.70;99.90;;;;;;5014823;28;20654;-48
2022/10/12 01:47:55;;;;;;;14.85;4.88;;;10.60;99.90;;;;;;5014300;28;20220;-48
2022/10/12 01:50:31;;;;;;;12.80;5.10;;;10.60;99.90;;;;;;5013416;28;20223;-49
2022/10/12 01:52:56;;;;;;;17.63;5.22;;;10.60;99.90;;;;;;5014779;28;20275;-48
2022/10/12 01:55:41;;;;;;;10.98;4.70;;;10.50;99.90;;;;;;5013334;28;20600;-51
2022/10/12 01:58:14;;;;;;;21.38;4.70;;;10.50;99.90;;;;;;5014787;28;20271;-51
2022/10/12 02:00:50;;;;;;;13.10;4.50;;;10.50;99.90;;;;;;5014553;28;20181;-46
2022/10/12 02:03:35;;;;;;;14.80;5.38;;;10.50;99.90;;;;;;5014388;28;20187;-49
2022/10/12 02:06:20;;;;;;;17.48;5.20;;;10.50;99.90;;;;;;5014268;28;20208;-49
2022/10/12 02:09:04;;;;;;;11.07;4.53;;;10.50;99.90;;;;;;4994550;28;20284;-51
2022/10/12 02:11:32;;;;;;;15.48;4.88;;;10.50;99.90;;;;;;4993744;28;20208;-48
2022/10/12 02:14:17;;;;;;;12.65;4.57;;;10.40;99.90;;;;;;4998937;28;20259;-50
2022/10/12 02:16:50;;;;;;;11.73;4.95;;;10.40;99.90;;;;;;5014259;28;20196;-48
2022/10/12 02:19:21;;;;;;;13.93;4.15;;;10.40;99.90;;;;;;5013420;28;20638;-47
2022/10/12 02:21:48;;;;;;;12.77;4.95;;;10.30;99.90;;;;;;5013846;28;20187;-49
2022/10/12 02:24:16;;;;;;;11.48;4.72;;;10.30;99.90;;;;;;4997287;28;20169;-49
2022/10/12 02:26:45;;;;;;;9.43;4.70;;;10.30;99.90;;;;;;4993308;28;20717;-48
2022/10/12 02:29:16;;;;;;;11.75;4.65;;;10.30;99.90;;;;;;5025897;28;20208;-50
2022/10/12 02:32:09;;;;;;;10.90;4.63;;;10.20;99.90;;;;;;4994412;28;20173;-49
2022/10/12 02:34:50;;;;;;;12.82;4.55;;;10.20;99.90;;;;;;5009766;28;20188;-48
2022/10/12 02:37:43;;;;;;;15.07;4.63;;;10.20;99.90;;;;;;5028134;28;20219;-47
2022/10/12 02:40:29;;;;;;;10.88;4.68;;;10.20;99.90;;;;;;5012538;28;20247;-47
2022/10/12 02:43:10;;;;;;;9.98;4.68;;;10.10;99.90;;;;;;5013813;28;20681;-50
2022/10/12 02:45:41;;;;;;;14.93;4.28;;;10.10;99.90;;;;;;5013762;28;20567;-47
2022/10/12 02:48:10;;;;;;;10.43;4.53;;;10.00;99.90;;;;;;5013489;28;20270;-50
2022/10/12 02:50:36;;;;;;;9.55;4.40;;;10.00;99.90;;;;;;5013560;28;20172;-52
2022/10/12 02:53:03;;;;;;;11.35;4.82;;;10.00;99.90;;;;;;5012411;28;20667;-50
2022/10/12 02:55:30;;;;;;;11.70;4.90;;;10.00;99.90;;;;;;5013919;28;20183;-50
2022/10/12 02:57:56;;;;;;;12.90;4.60;;;10.00;99.90;;;;;;5013710;28;20184;-49
2022/10/12 03:00:22;;;;;;;15.25;5.07;;;10.00;99.90;;;;;;5012217;28;20172;-51
2022/10/12 03:02:47;;;;;;;13.30;5.57;;;10.00;99.90;;;;;;5013047;28;20275;-51
2022/10/12 03:05:13;;;;;;;12.48;5.00;;;9.90;99.90;;;;;;5012654;28;20201;-48
2022/10/12 03:07:39;;;;;;;14.13;5.03;;;9.90;99.90;;;;;;5012044;28;20208;-46
2022/10/12 03:10:05;;;;;;;16.77;5.00;;;9.90;99.90;;;;;;5012949;28;20184;-48
2022/10/12 03:12:31;;;;;;;16.40;5.55;;;9.90;99.90;;;;;;5013586;28;20193;-48
2022/10/12 03:14:56;;;;;;;10.93;4.90;;;9.80;99.90;;;;;;5012598;28;20303;-49
2022/10/12 03:17:22;;;;;;;11.45;4.38;;;9.80;99.90;;;;;;5012588;28;20188;-49
2022/10/12 03:19:48;;;;;;;11.60;4.00;;;9.80;99.90;;;;;;5011494;28;20615;-48
2022/10/12 03:22:13;;;;;;;10.57;4.13;;;9.80;99.90;;;;;;5013085;28;20559;-48
2022/10/12 03:24:39;;;;;;;14.77;4.82;;;9.80;99.90;;;;;;5012851;28;20267;-49
2022/10/12 03:27:05;;;;;;;16.17;5.00;;;9.70;99.90;;;;;;5011801;28;20215;-51
2022/10/12 03:29:31;;;;;;;16.95;4.80;;;9.70;99.90;;;;;;5011668;28;20181;-51
2022/10/12 03:31:56;;;;;;;10.93;5.22;;;9.70;99.90;;;;;;5012647;28;20204;-49
2022/10/12 03:34:22;;;;;;;10.65;5.05;;;9.60;99.90;;;;;;5012957;28;20191;-49
2022/10/12 03:36:48;;;;;;;11.35;4.45;;;9.60;99.90;;;;;;5012955;28;20638;-51
2022/10/12 03:39:14;;;;;;;16.45;4.93;;;9.60;99.90;;;;;;5013114;28;20180;-50
2022/10/12 03:41:39;;;;;;;11.27;4.90;;;9.60;99.90;;;;;;5011650;28;20634;-49
2022/10/12 03:44:05;;;;;;;9.45;4.57;;;9.60;99.90;;;;;;5011104;28;20693;-48
2022/10/12 03:46:31;;;;;;;10.38;4.57;;;9.50;99.90;;;;;;5011439;28;20208;-47
2022/10/12 03:48:57;;;;;;;12.02;4.63;;;9.50;99.90;;;;;;5014506;28;20669;-48
2022/10/12 03:51:22;;;;;;;7.65;4.75;;;9.50;99.90;;;;;;5015523;28;20270;-49
2022/10/12 03:53:48;;;;;;;9.48;4.75;;;9.50;99.90;;;;;;5015596;28;20238;-47
2022/10/12 03:56:14;;;;;;;10.10;4.63;;;9.50;99.90;;;;;;5015736;28;20184;-49
2022/10/12 03:58:39;;;;;;;13.93;4.80;;;9.50;99.90;;;;;;5016699;28;20211;-48
2022/10/12 04:01:05;;;;;;;14.48;5.50;;;9.50;99.90;;;;;;5016388;28;20599;-49
2022/10/12 04:03:31;;;;;;;16.08;5.97;;;9.50;99.90;;;;;;5016918;28;20184;-47
2022/10/12 04:05:57;;;;;;;16.58;5.70;;;9.50;99.90;;;;;;5016656;28;20177;-49
2022/10/12 04:08:25;;;;;;;13.82;6.50;;;9.60;99.90;;;;;;5016556;28;20630;-46
2022/10/12 04:10:51;;;;;;;14.18;6.30;;;9.50;99.90;;;;;;5016298;28;20181;-48
2022/10/12 04:13:17;;;;;;;11.98;5.72;;;9.60;99.90;;;;;;5014702;28;20219;-51
2022/10/12 04:15:43;;;;;;;16.92;6.35;;;9.50;99.90;;;;;;5016187;28;20193;-49
2022/10/12 04:18:09;;;;;;;13.45;6.13;;;9.50;99.90;;;;;;5017070;28;20204;-50
2022/10/12 04:20:35;;;;;;;10.82;5.68;;;9.50;99.90;;;;;;5015582;28;20188;-47
2022/10/12 04:23:00;;;;;;;11.90;5.78;;;9.40;99.90;;;;;;5010873;28;20178;-53
2022/10/12 04:25:26;;;;;;;13.65;6.18;;;9.40;99.90;;;;;;4999509;28;20195;-46
2022/10/12 04:27:52;;;;;;;11.80;6.05;;;9.40;99.90;;;;;;5012663;28;20208;-48
2022/10/12 04:30:18;;;;;;;13.35;5.72;;;9.30;99.90;;;;;;5016075;28;20184;-48
2022/10/12 04:32:43;;;;;;;17.02;6.30;;;9.30;99.90;;;;;;5016632;28;20531;-47
2022/10/12 04:35:10;;;;;;;19.02;7.40;;;9.30;99.90;;;;;;5015047;28;20181;-47
2022/10/12 04:37:36;;;;;;;22.17;7.25;;;9.30;99.90;;;;;;5016307;28;20642;-48
2022/10/12 04:40:02;;;;;;;15.32;7.15;;;9.30;99.90;;;;;;5016101;28;20177;-49
2022/10/12 04:42:27;;;;;;;16.58;6.95;;;9.30;99.90;;;;;;5015466;28;20228;-50
2022/10/12 04:44:53;;;;;;;16.02;7.13;;;9.30;99.90;;;;;;5017877;28;20173;-50
2022/10/12 04:47:19;;;;;;;17.15;7.15;;;9.30;99.90;;;;;;5016094;28;20658;-50
2022/10/12 04:49:44;;;;;;;17.05;7.25;;;9.30;99.90;;;;;;5012309;28;20191;-49
2022/10/12 04:52:10;;;;;;;14.77;7.38;;;9.30;99.90;;;;;;5013984;28;20638;-47
2022/10/12 04:54:36;;;;;;;15.70;7.20;;;9.20;99.90;;;;;;5014537;28;20227;-50
2022/10/12 04:57:02;;;;;;;14.55;7.22;;;9.20;99.90;;;;;;5014350;28;20185;-53
2022/10/12 04:59:28;;;;;;;17.77;7.63;;;9.20;99.90;;;;;;5028157;28;20183;-49
2022/10/12 05:01:53;;;;;;;15.68;7.35;;;9.10;99.90;;;;;;5014518;28;20659;-48
2022/10/12 05:04:19;;;;;;;15.18;7.68;;;9.10;99.90;;;;;;5013056;28;21090;-47
2022/10/12 05:06:45;;;;;;;19.83;8.50;;;9.10;99.90;;;;;;5015311;28;20692;-47
2022/10/12 05:09:11;;;;;;;19.25;8.18;;;9.00;99.90;;;;;;4996121;28;20196;-46
2022/10/12 05:11:37;;;;;;;17.30;8.23;;;9.10;99.90;;;;;;5014314;28;20271;-46
2022/10/12 05:14:03;;;;;;;24.30;8.73;;;9.00;99.90;;;;;;5014743;28;20279;-50
2022/10/12 05:16:28;;;;;;;18.55;7.88;;;9.00;99.90;;;;;;5015796;28;20259;-47
2022/10/12 05:18:54;;;;;;;16.13;7.90;;;9.10;99.90;;;;;;5030835;28;20609;-51
2022/10/12 05:21:20;;;;;;;20.75;8.27;;;9.10;99.90;;;;;;5015202;28;20551;-49
2022/10/12 05:23:51;;;;;;;20.83;8.15;;;9.10;99.90;;;;;;5012185;28;20271;-45
2022/10/12 05:26:17;;;;;;;19.73;8.02;;;9.00;99.90;;;;;;5015036;28;20216;-47
2022/10/12 05:28:43;;;;;;;19.65;7.85;;;9.10;99.90;;;;;;5013610;28;20543;-48
2022/10/12 05:31:09;;;;;;;21.58;8.10;;;9.10;99.90;;;;;;5013953;28;20239;-48
2022/10/12 05:33:34;;;;;;;18.80;8.60;;;9.10;99.90;;;;;;5014613;28;20619;-46
2022/10/12 05:36:00;;;;;;;17.23;8.05;;;9.10;99.90;;;;;;5015189;28;20168;-46
2022/10/12 05:38:26;;;;;;;20.95;8.23;;;9.10;99.90;;;;;;5029055;28;20184;-49
2022/10/12 05:40:51;;;;;;;25.02;8.50;;;9.10;99.90;;;;;;5014786;28;20626;-49
2022/10/12 05:43:17;;;;;;;23.25;8.85;;;9.10;99.90;;;;;;5029662;28;20575;-49
2022/10/12 05:45:43;;;;;;;18.83;8.57;;;9.20;99.90;;;;;;5011848;28;20242;-45
2022/10/12 05:48:08;;;;;;;20.27;8.15;;;9.10;99.90;;;;;;4999422;28;20322;-47
2022/10/12 05:50:34;;;;;;;21.83;8.18;;;9.10;99.90;;;;;;5013467;28;20239;-48
2022/10/12 05:53:00;;;;;;;18.00;7.75;;;9.10;99.90;;;;;;5014880;28;20169;-47
2022/10/12 05:55:26;;;;;;;25.48;7.90;;;9.00;99.90;;;;;;5014429;28;20558;-45
2022/10/12 05:57:52;;;;;;;15.07;7.60;;;9.00;99.90;;;;;;5012894;28;20185;-50
2022/10/12 06:00:18;;;;;;;24.00;8.10;;;8.90;99.90;;;;;;5012490;28;20605;-53
2022/10/12 06:02:43;;;;;;;15.80;8.27;;;8.90;99.90;;;;;;5012934;28;20181;-54
2022/10/12 06:05:09;;;;;;;16.67;7.78;;;8.90;99.90;;;;;;5011790;28;20188;-46
2022/10/12 06:07:35;;;;;;;22.30;8.65;;;8.90;99.90;;;;;;5009675;28;20220;-50
2022/10/12 06:10:01;;;;;;;21.75;8.68;;;8.90;99.90;;;;;;5012779;28;20203;-49
2022/10/12 06:12:27;;;;;;;21.52;9.63;;;8.80;99.90;;;;;;5012827;28;20181;-47
2022/10/12 06:14:53;;;;;;;17.88;7.95;;;8.80;99.90;;;;;;5012270;28;20194;-45
2022/10/12 06:17:18;;;;;;;16.73;7.38;;;8.90;99.90;;;;;;5029786;28;20263;-48
2022/10/12 06:19:44;;;;;;;20.70;7.65;;;8.80;99.90;;;;;;5011589;28;20271;-47
2022/10/12 06:22:10;;;;;;;20.25;8.63;;;8.90;99.90;;;;;;5014010;28;20234;-49
2022/10/12 06:24:37;;;;;;;17.77;7.97;;;8.80;99.90;;;;;;5012539;28;20258;-48
2022/10/12 06:27:03;;;;;;;21.55;8.85;;;8.90;99.90;;;;;;5017591;28;20209;-48
2022/10/12 06:29:29;;;;;;;23.58;8.75;;;8.90;99.90;;;;;;5020002;28;20224;-52
2022/10/12 06:31:55;;;;;;;23.55;8.30;;;8.90;99.90;;;;;;5012501;28;20192;-50
2022/10/12 06:34:20;;;;;;;19.50;8.10;;;8.90;99.90;;;;;;5006592;28;20610;-49
2022/10/12 06:36:47;;;;;;;19.27;9.02;;;9.00;99.90;;;;;;5013985;28;20211;-49
2022/10/12 06:39:13;;;;;;;18.38;8.02;;;9.00;99.90;;;;;;5025751;28;20200;-53
2022/10/12 06:41:38;;;;;;;21.40;8.73;;;9.10;99.90;;;;;;5013478;28;20638;-51
2022/10/12 06:44:07;;;;;;;27.38;8.50;;;9.10;99.90;;;;;;5017413;28;20248;-51
2022/10/12 06:46:33;;;;;;;19.00;8.25;;;9.10;99.90;;;;;;5005429;28;20220;-50
2022/10/12 06:48:59;;;;;;;24.50;8.93;;;9.20;99.90;;;;;;5006863;28;20252;-52
2022/10/12 06:51:24;;;;;;;20.20;8.57;;;9.20;99.90;;;;;;5005171;28;20195;-52
2022/10/12 06:53:54;;;;;;;20.90;9.13;;;9.20;99.90;;;;;;5011121;28;20187;-49
2022/10/12 06:56:20;;;;;;;27.08;9.98;;;9.30;99.90;;;;;;5013468;28;20215;-51
2022/10/12 06:58:45;;;;;;;24.52;10.25;;;9.30;99.90;;;;;;5009607;28;20180;-48
2022/10/12 07:01:11;;;;;;;22.98;9.90;;;9.30;99.90;;;;;;5011149;28;20702;-48
2022/10/12 07:03:37;;;;;;;26.80;9.38;;;9.30;99.90;;;;;;5010751;28;20189;-52
2022/10/12 07:06:11;;;;;;;23.92;9.88;;;9.20;99.90;;;;;;5028983;28;20180;-51
2022/10/12 07:08:37;;;;;;;21.98;9.32;;;9.30;99.90;;;;;;5011041;28;20199;-52
2022/10/12 07:11:05;;;;;;;26.27;9.93;;;9.40;99.90;;;;;;5012303;28;20267;-50
2022/10/12 07:13:32;;;;;;;25.85;9.25;;;9.40;99.90;;;;;;5010781;28;20264;-50
2022/10/12 07:15:58;;;;;;;28.15;9.63;;;9.40;99.90;;;;;;5013661;28;20204;-51
2022/10/12 07:18:24;;;;;;;17.15;8.90;;;9.50;99.90;;;;;;5009645;28;21152;-53
2022/10/12 07:20:50;;;;;;;20.75;9.70;;;9.50;99.90;;;;;;5013341;28;20179;-49
2022/10/12 07:23:16;;;;;;;24.77;10.02;;;9.50;99.90;;;;;;5026234;28;20264;-48
2022/10/12 07:25:49;;;;;;;23.38;9.95;;;9.60;99.90;;;;;;5013348;28;20768;-49
2022/10/12 07:28:16;;;;;;;23.23;9.38;;;9.60;99.90;;;;;;5009994;28;20184;-51
2022/10/12 07:30:42;;;;;;;20.67;9.68;;;9.60;99.90;;;;;;5010856;28;20188;-50
2022/10/12 07:33:08;;;;;;;22.33;9.98;;;9.60;99.90;;;;;;5009727;28;20210;-55
2022/10/12 07:35:33;;;;;;;19.25;9.13;;;9.60;99.90;;;;;;5013542;28;20638;-50
2022/10/12 07:37:59;;;;;;;21.95;9.48;;;9.60;99.90;;;;;;5011744;28;20290;-50
2022/10/12 07:40:25;;;;;;;19.67;9.65;;;9.70;99.90;;;;;;5024836;28;20189;-52
2022/10/12 07:42:51;;;;;;;18.80;9.63;;;9.70;99.90;;;;;;5013110;28;20282;-52
2022/10/12 07:45:17;;;;;;;20.55;9.88;;;9.70;99.90;;;;;;5007827;28;20194;-50
2022/10/12 07:47:43;;;;;;;25.73;9.98;;;9.70;99.90;;;;;;5009733;28;20224;-47
2022/10/12 07:50:09;;;;;;;33.00;10.40;;;9.80;99.90;;;;;;5025164;28;20201;-51
2022/10/12 07:52:35;;;;;;;22.75;10.10;;;9.80;99.90;;;;;;5012918;28;20184;-53
2022/10/12 07:55:01;;;;;;;20.85;10.55;;;9.80;99.90;;;;;;5011071;28;20192;-48
2022/10/12 07:57:26;;;;;;;24.05;10.05;;;9.90;99.90;;;;;;5011749;28;20231;-49
2022/10/12 07:59:52;;;;;;;25.70;11.30;;;9.90;99.90;;;;;;5009434;28;20235;-51
2022/10/12 08:02:17;;;;;;;21.38;10.25;;;9.90;99.90;;;;;;5008718;28;20430;-49
2022/10/12 08:04:43;;;;;;;27.52;11.63;;;10.00;99.90;;;;;;5010295;28;20184;-50
2022/10/12 08:07:09;;;;;;;23.10;12.02;;;10.10;99.90;;;;;;5012655;28;20680;-48
2022/10/12 08:09:35;;;;;;;24.30;10.52;;;10.20;99.90;;;;;;5010739;28;20188;-47
2022/10/12 08:12:01;;;;;;;23.75;10.82;;;10.20;99.90;;;;;;5012880;28;20180;-50
2022/10/12 08:14:27;;;;;;;27.10;10.55;;;10.30;99.90;;;;;;5009608;28;20304;-50
2022/10/12 08:16:53;;;;;;;24.55;10.07;;;10.40;99.90;;;;;;5013169;28;20204;-49
2022/10/12 08:19:19;;;;;;;23.80;10.30;;;10.50;99.90;;;;;;5008639;28;20267;-50
2022/10/12 08:21:45;;;;;;;22.52;9.95;;;10.60;99.90;;;;;;5011526;28;20180;-51
2022/10/12 08:24:11;;;;;;;32.10;10.60;;;10.60;99.90;;;;;;5011234;28;20193;-47
2022/10/12 08:26:38;;;;;;;24.73;10.30;;;10.70;99.90;;;;;;5027642;28;20204;-50
2022/10/12 08:29:05;;;;;;;20.77;10.18;;;10.80;99.90;;;;;;5010809;28;20254;-49
2022/10/12 08:31:31;;;;;;;21.75;9.38;;;10.90;99.90;;;;;;5012690;28;20169;-52
2022/10/12 08:33:57;;;;;;;20.58;10.30;;;11.00;99.90;;;;;;5017300;28;20321;-50
2022/10/12 08:36:23;;;;;;;28.27;10.43;;;11.10;99.90;;;;;;4994911;28;20256;-46
2022/10/12 08:38:52;;;;;;;18.83;9.98;;;11.20;99.90;;;;;;5017127;28;20676;-48
2022/10/12 08:41:50;;;;;;;24.42;10.45;;;11.30;99.90;;;;;;5015241;28;20208;-50
2022/10/12 08:44:53;;;;;;;30.55;9.70;;;11.40;99.90;;;;;;5004035;28;20242;-50
2022/10/12 08:47:28;;;;;;;27.83;9.40;;;11.50;99.90;;;;;;4997619;28;20248;-51
2022/10/12 08:49:53;;;;;;;25.63;9.88;;;11.60;99.90;;;;;;5008916;28;20202;-49
2022/10/12 08:52:31;;;;;;;24.05;9.32;;;11.70;99.90;;;;;;5013337;28;20188;-51
2022/10/12 08:55:05;;;;;;;25.67;9.82;;;11.80;99.90;;;;;;5013795;28;20186;-53
2022/10/12 08:57:31;;;;;;;20.55;8.73;;;11.90;99.90;;;;;;5015716;28;20187;-50
2022/10/12 08:59:58;;;;;;;27.02;10.23;;;12.00;99.90;;;;;;5010198;28;20192;-50
2022/10/12 09:02:52;;;;;;;24.30;9.00;;;12.00;99.90;;;;;;4996510;28;20239;-47
2022/10/12 09:05:33;;;;;;;25.23;9.68;;;12.10;99.90;;;;;;5010487;28;20616;-51
2022/10/12 09:08:30;;;;;;;22.63;9.30;;;12.20;99.90;;;;;;5014661;28;20208;-50
2022/10/12 09:11:23;;;;;;;27.65;9.07;;;12.30;99.90;;;;;;5007265;28;20665;-51
2022/10/12 09:14:02;;;;;;;21.67;9.05;;;12.40;99.90;;;;;;5013206;28;20203;-52
2022/10/12 09:16:31;;;;;;;22.25;8.60;;;12.50;99.90;;;;;;5015451;28;20208;-51
2022/10/12 09:19:11;;;;;;;20.33;7.97;;;12.60;99.90;;;;;;5011930;28;20181;-54
2022/10/12 09:21:41;;;;;;;22.35;7.63;;;12.80;99.90;;;;;;5013150;28;20184;-55
2022/10/12 09:24:14;;;;;;;19.52;7.60;;;12.90;99.90;;;;;;5012798;28;20180;-55
2022/10/12 09:26:39;;;;;;;21.02;7.80;;;13.10;99.90;;;;;;5014502;28;20286;-54
2022/10/12 09:29:26;;;;;;;28.58;7.90;;;13.20;99.90;;;;;;5028666;28;20596;-50
2022/10/12 09:32:35;;;;;;;18.10;7.25;;;13.30;99.90;;;;;;5014178;28;20176;-49
2022/10/12 09:35:03;;;;;;;23.45;8.15;;;13.40;99.90;;;;;;5011622;28;20270;-55
2022/10/12 09:37:31;;;;;;;19.60;7.63;;;13.50;99.90;;;;;;5011814;28;20195;-57
2022/10/12 09:39:57;;;;;;;22.00;7.50;;;13.60;99.90;;;;;;5023385;28;20209;-50
2022/10/12 09:42:23;;;;;;;18.15;6.72;;;13.70;99.90;;;;;;5013605;28;20237;-53
2022/10/12 09:44:55;;;;;;;17.55;7.03;;;13.80;99.90;;;;;;5012964;28;20199;-52
2022/10/12 09:47:30;;;;;;;15.82;6.75;;;13.90;99.90;;;;;;5014494;28;20212;-52
2022/10/12 09:49:59;;;;;;;19.88;6.70;;;14.00;99.90;;;;;;5010819;28;20279;-53
2022/10/12 09:52:34;;;;;;;16.83;6.93;;;14.10;99.90;;;;;;5015030;28;20169;-52
2022/10/12 09:55:05;;;;;;;20.05;6.82;;;14.30;99.90;;;;;;5013180;28;20188;-53
2022/10/12 09:57:40;;;;;;;21.48;6.38;;;14.40;99.90;;;;;;5015081;28;20204;-54
2022/10/12 10:00:22;;;;;;;20.45;6.82;;;14.60;99.90;;;;;;5011716;28;20206;-50
2022/10/12 10:02:50;;;;;;;26.58;5.50;;;14.60;99.90;;;;;;5028778;28;20183;-54
2022/10/12 10:05:25;;;;;;;23.40;6.07;;;14.70;99.90;;;;;;5011386;28;20192;-52
2022/10/12 10:07:51;;;;;;;16.77;5.03;;;14.80;99.90;;;;;;5035287;28;20298;-56
2022/10/12 10:10:23;;;;;;;21.45;5.35;;;14.90;99.90;;;;;;5010533;28;20272;-52
2022/10/12 10:12:52;;;;;;;16.38;6.07;;;15.00;99.90;;;;;;5014002;28;20231;-53
2022/10/12 10:15:28;;;;;;;18.38;5.20;;;15.10;99.90;;;;;;5012893;28;20172;-53
2022/10/12 10:17:59;;;;;;;19.50;5.53;;;15.10;99.90;;;;;;5016605;28;20184;-53
2022/10/12 10:20:50;;;;;;;17.90;5.40;;;15.20;99.90;;;;;;5028191;28;20288;-53
2022/10/12 10:23:38;;;;;;;18.48;4.82;;;15.20;99.90;;;;;;5012403;28;20188;-51
2022/10/12 10:26:11;;;;;;;15.00;4.20;;;15.40;99.90;;;;;;5013874;28;20196;-55
2022/10/12 10:28:39;;;;;;;17.73;4.53;;;15.50;99.90;;;;;;5012586;28;20185;-53
2022/10/12 10:31:14;;;;;;;13.02;4.45;;;15.50;99.90;;;;;;5014180;28;20587;-49
2022/10/12 10:33:42;;;;;;;15.80;5.10;;;15.50;99.90;;;;;;5011335;28;20716;-56
2022/10/12 10:36:19;;;;;;;25.40;5.65;;;15.60;99.90;;;;;;5039107;28;20189;-51
2022/10/12 10:38:53;;;;;;;23.33;5.55;;;15.80;99.90;;;;;;5025411;28;20199;-52
2022/10/12 10:41:19;;;;;;;16.23;5.70;;;15.90;99.90;;;;;;5024523;28;20176;-55
2022/10/12 10:43:47;;;;;;;16.10;6.03;;;16.10;99.90;;;;;;5017347;28;20254;-63
2022/10/12 10:46:14;;;;;;;19.02;6.50;;;16.20;99.90;;;;;;5016510;28;20199;-52
2022/10/12 10:49:06;;;;;;;21.55;6.72;;;16.30;99.90;;;;;;5014156;28;20192;-61
2022/10/12 10:51:38;;;;;;;26.02;7.38;;;16.40;99.90;;;;;;5015101;28;20196;-53
2022/10/12 10:54:22;;;;;;;19.15;7.85;;;16.40;99.60;;;;;;5012788;28;20188;-52
2022/10/12 10:56:59;;;;;;;20.67;8.23;;;16.50;99.00;;;;;;5008537;28;20272;-52
2022/10/12 10:59:36;;;;;;;18.58;8.02;;;16.60;98.60;;;;;;5000958;28;20243;-55
2022/10/12 11:02:09;;;;;;;21.58;8.07;;;16.70;98.50;;;;;;5005528;28;20184;-52
2022/10/12 11:04:41;;;;;;;19.50;8.95;;;16.80;98.40;;;;;;5011287;28;20247;-52
2022/10/12 11:07:38;;;;;;;21.67;8.40;;;16.90;97.80;;;;;;5014108;28;20204;-51
2022/10/12 11:10:16;;;;;;;22.83;8.90;;;17.00;97.20;;;;;;5012179;28;20562;-53
2022/10/12 11:12:46;;;;;;;22.67;8.23;;;17.10;96.60;;;;;;5013658;28;20646;-50
2022/10/12 11:15:19;;;;;;;20.27;7.78;;;17.20;95.90;;;;;;5026800;28;20187;-54
2022/10/12 11:17:48;;;;;;;21.48;7.45;;;17.20;95.60;;;;;;5015080;28;20180;-56
2022/10/12 11:20:35;;;;;;;14.65;6.85;;;17.30;95.00;;;;;;5026885;28;20657;-54
2022/10/12 11:23:08;;;;;;;18.23;6.85;;;17.30;94.40;;;;;;5014252;28;20177;-59
2022/10/12 11:25:46;;;;;;;20.30;6.53;;;17.30;93.90;;;;;;5012871;28;20196;-54
2022/10/12 11:28:14;;;;;;;20.35;7.32;;;17.30;93.60;;;;;;5012326;28;20665;-58
2022/10/12 11:30:50;;;;;;;18.60;7.30;;;17.30;93.00;;;;;;5029953;28;20223;-54
2022/10/12 11:33:37;;;;;;;17.45;7.78;;;17.40;92.90;;;;;;5010399;28;20185;-56
2022/10/12 11:36:07;;;;;;;19.23;7.15;;;17.50;92.90;;;;;;5010885;28;20219;-55
2022/10/12 11:38:39;;;;;;;23.02;7.30;;;17.50;92.50;;;;;;5013076;28;20235;-54
2022/10/12 11:41:13;;;;;;;22.42;7.32;;;17.60;92.30;;;;;;5014398;28;20180;-55
2022/10/12 11:43:52;;;;;;;21.95;6.70;;;17.60;91.80;;;;;;5026513;28;20274;-54
2022/10/12 11:46:22;;;;;;;18.95;7.28;;;17.50;91.50;;;;;;5012129;28;20271;-54
2022/10/12 11:49:11;;;;;;;14.40;6.65;;;17.50;91.30;;;;;;5010119;28;20211;-55
2022/10/12 11:51:37;;;;;;;19.40;7.63;;;17.40;91.00;;;;;;5014112;28;20254;-55
2022/10/12 11:54:26;;;;;;;18.33;8.07;;;17.40;90.70;;;;;;5010330;28;20223;-51
2022/10/12 11:56:57;;;;;;;19.60;8.27;;;17.40;90.60;;;;;;5012728;28;20193;-50
2022/10/12 11:59:47;;;;;;;18.75;8.15;;;17.40;90.80;;;;;;5011441;28;20200;-55
2022/10/12 12:02:32;;;;;;;20.02;8.05;;;17.50;90.60;;;;;;5012377;28;20650;-62
2022/10/12 12:05:01;;;;;;;25.88;8.63;;;17.50;90.30;;;;;;5006152;28;20180;-52
2022/10/12 12:07:53;;;;;;;22.00;8.32;;;17.40;90.20;;;;;;5011794;28;20205;-53
2022/10/12 12:10:30;;;;;;;20.58;8.75;;;17.30;90.00;;;;;;5012845;28;20595;-53
2022/10/12 12:13:13;;;;;;;18.63;8.18;;;17.30;90.50;;;;;;5016257;28;20176;-54
2022/10/12 12:15:45;;;;;;;20.70;7.93;;;17.30;90.60;;;;;;5012560;28;20196;-51
2022/10/12 12:18:12;;;;;;;22.25;7.35;;;17.40;90.70;;;;;;5013450;28;20188;-53
2022/10/12 12:20:45;;;;;;;16.55;8.20;;;17.50;90.70;;;;;;5013198;28;20247;-52
2022/10/12 12:23:24;;;;;;;19.15;8.65;;;17.60;90.50;;;;;;5030272;28;20618;-55
2022/10/12 12:26:13;;;;;;;25.38;8.02;;;17.50;90.40;;;;;;4996883;28;20734;-51
2022/10/12 12:28:47;;;;;;;18.63;7.05;;;17.50;90.00;;;;;;5024515;28;20188;-53
2022/10/12 12:31:27;;;;;;;21.77;7.53;;;17.40;90.30;;;;;;5015200;28;20564;-53
2022/10/12 12:34:13;;;;;;;17.15;7.78;;;17.40;90.40;;;;;;5012686;28;20180;-54
2022/10/12 12:36:43;;;;;;;17.25;6.60;;;17.40;90.40;;;;;;5014776;28;20250;-54
2022/10/12 12:39:38;;;;;;;17.63;6.85;;;17.40;90.20;;;;;;5014240;28;20258;-54
2022/10/12 12:42:08;;;;;;;16.95;6.50;;;17.40;89.90;;;;;;5010972;28;20228;-54
2022/10/12 12:44:36;;;;;;;21.27;7.30;;;17.30;90.00;;;;;;5012920;28;20189;-51
2022/10/12 12:47:02;;;;;;;17.48;7.82;;;17.30;90.00;;;;;;5014242;28;20668;-52
2022/10/12 12:49:56;;;;;;;16.58;6.63;;;17.20;90.00;;;;;;5014227;28;20275;-52
2022/10/12 12:52:37;;;;;;;20.05;6.97;;;17.10;89.90;;;;;;5011041;28;20207;-51
2022/10/12 12:55:15;;;;;;;17.45;7.20;;;17.00;89.90;;;;;;5012579;28;20184;-53
2022/10/12 12:57:57;;;;;;;16.95;7.07;;;16.90;90.20;;;;;;5016546;28;20186;-52
2022/10/12 13:00:26;;;;;;;15.40;6.75;;;16.90;90.40;;;;;;5010704;28;20733;-54